createdAt,value
2019-03-17T00:00:51.750Z,16.87
2019-03-17T00:03:20.564Z,19.15
2019-03-17T00:05:49.412Z,19.20
2019-03-17T00:08:18.382Z,17.47
2019-03-17T00:10:47.244Z,17.17
2019-03-17T00:13:17.836Z,18.25
2019-03-17T00:15:46.859Z,17.67
2019-03-17T00:18:15.711Z,19.35
2019-03-17T00:20:44.603Z,17.73
2019-03-17T00:23:13.501Z,18.40
2019-03-17T00:25:42.396Z,18.62
2019-03-17T00:28:11.213Z,18.10
2019-03-17T00:30:40.329Z,19.77
2019-03-17T00:33:09.262Z,19.05
2019-03-17T00:35:38.130Z,20.23
2019-03-17T00:38:07.129Z,18.40
2019-03-17T00:40:35.957Z,17.90
2019-03-17T00:43:04.886Z,19.20
2019-03-17T00:45:33.900Z,20.23
2019-03-17T00:48:02.682Z,21.65
2019-03-17T00:50:31.706Z,18.25
2019-03-17T00:53:00.872Z,20.17
2019-03-17T00:55:29.820Z,21.33
2019-03-17T00:58:17.855Z,18.45
2019-03-17T01:00:46.737Z,23.73
2019-03-17T01:03:15.575Z,20.10
2019-03-17T01:05:44.414Z,19.57
2019-03-17T01:08:13.286Z,20.00
2019-03-17T01:10:42.113Z,19.40
2019-03-17T01:13:11.030Z,20.97
2019-03-17T01:15:40.182Z,19.57
2019-03-17T01:18:09.004Z,18.65
2019-03-17T01:20:37.838Z,19.57
2019-03-17T01:23:06.675Z,21.27
2019-03-17T01:25:35.731Z,19.07
2019-03-17T01:28:04.691Z,20.68
2019-03-17T01:30:33.560Z,20.37
2019-03-17T01:33:02.351Z,19.47
2019-03-17T01:35:32.816Z,22.15
2019-03-17T01:38:02.442Z,20.23
2019-03-17T01:40:31.484Z,22.52
2019-03-17T01:43:00.690Z,21.05
2019-03-17T01:45:29.579Z,20.90
2019-03-17T01:47:58.414Z,28.20
2019-03-17T01:50:27.338Z,23.07
2019-03-17T01:52:56.270Z,21.05
2019-03-17T01:55:25.128Z,19.77
2019-03-17T01:57:53.939Z,19.52
2019-03-17T02:00:22.754Z,16.15
2019-03-17T02:02:51.615Z,17.50
2019-03-17T02:05:22.268Z,17.40
2019-03-17T02:07:51.375Z,17.65
2019-03-17T02:10:20.252Z,17.35
2019-03-17T02:12:49.131Z,15.53
2019-03-17T02:15:18.030Z,19.45
2019-03-17T02:17:46.895Z,17.42
2019-03-17T02:20:15.854Z,17.82
2019-03-17T02:22:44.642Z,16.00
2019-03-17T02:25:13.506Z,16.30
2019-03-17T02:27:42.358Z,18.40
2019-03-17T02:30:11.621Z,16.15
2019-03-17T02:32:40.431Z,16.93
2019-03-17T02:35:09.411Z,15.60
2019-03-17T02:37:38.314Z,19.67
2019-03-17T02:40:07.231Z,15.03
2019-03-17T02:42:36.075Z,21.20
2019-03-17T02:45:05.370Z,17.87
2019-03-17T02:47:34.179Z,17.00
2019-03-17T02:50:03.236Z,16.75
2019-03-17T02:52:32.311Z,20.70
2019-03-17T02:55:01.112Z,17.12
2019-03-17T02:57:30.015Z,18.75
2019-03-17T02:59:58.820Z,19.45
2019-03-17T03:02:27.655Z,17.70
2019-03-17T03:04:56.506Z,16.10
2019-03-17T03:07:25.309Z,14.80
2019-03-17T03:09:54.205Z,18.10
2019-03-17T03:12:23.007Z,15.28
2019-03-17T03:14:51.806Z,15.35
2019-03-17T03:17:20.619Z,17.73
2019-03-17T03:19:49.532Z,16.90
2019-03-17T03:22:18.402Z,16.32
2019-03-17T03:24:47.293Z,14.93
2019-03-17T03:27:16.123Z,17.92
2019-03-17T03:29:44.998Z,18.67
2019-03-17T03:32:13.902Z,16.20
2019-03-17T03:34:42.807Z,19.00
2019-03-17T03:37:11.615Z,15.18
2019-03-17T03:39:40.424Z,15.83
2019-03-17T03:42:09.368Z,20.17
2019-03-17T03:44:38.234Z,20.30
2019-03-17T03:47:07.194Z,17.30
2019-03-17T03:49:36.128Z,17.87
2019-03-17T03:52:05.083Z,17.90
2019-03-17T03:54:34.160Z,15.98
2019-03-17T03:57:03.123Z,17.02
2019-03-17T03:59:31.971Z,17.67
2019-03-17T04:02:01.081Z,14.73
2019-03-17T04:04:30.182Z,14.75
2019-03-17T04:06:59.019Z,15.38
2019-03-17T04:09:27.881Z,16.50
2019-03-17T04:11:56.688Z,13.78
2019-03-17T04:14:25.555Z,15.90
2019-03-17T04:16:54.438Z,14.35
2019-03-17T04:19:23.530Z,15.72
2019-03-17T04:21:52.419Z,14.85
2019-03-17T04:24:21.775Z,13.85
2019-03-17T04:26:50.572Z,15.83
2019-03-17T04:29:19.560Z,17.50
2019-03-17T04:31:48.784Z,15.63
2019-03-17T04:34:17.600Z,16.25
2019-03-17T04:36:46.743Z,12.47
2019-03-17T04:39:15.536Z,14.07
2019-03-17T04:41:44.705Z,14.47
2019-03-17T04:44:20.809Z,14.05
2019-03-17T04:46:44.084Z,13.68
2019-03-17T04:49:12.874Z,12.35
2019-03-17T04:51:41.680Z,16.93
2019-03-17T04:54:10.563Z,16.20
2019-03-17T04:56:39.616Z,14.50
2019-03-17T04:59:08.422Z,14.75
2019-03-17T05:01:37.292Z,13.48
2019-03-17T05:04:06.094Z,18.62
2019-03-17T05:06:35.370Z,12.77
2019-03-17T05:09:05.622Z,14.95
2019-03-17T05:11:34.463Z,14.10
2019-03-17T05:14:03.536Z,14.75
2019-03-17T05:16:35.602Z,15.75
2019-03-17T05:19:03.448Z,14.70
2019-03-17T05:21:32.251Z,13.72
2019-03-17T05:24:01.115Z,12.82
2019-03-17T05:26:29.917Z,14.40
2019-03-17T05:28:58.725Z,16.73
2019-03-17T05:31:27.841Z,14.85
2019-03-17T05:33:56.702Z,17.85
2019-03-17T05:36:25.768Z,15.25
2019-03-17T05:38:54.793Z,16.77
2019-03-17T05:41:24.119Z,14.80
2019-03-17T05:43:53.243Z,16.10
2019-03-17T05:46:22.058Z,15.90
2019-03-17T05:48:51.295Z,14.58
2019-03-17T05:51:20.403Z,14.83
2019-03-17T05:53:49.203Z,14.60
2019-03-17T05:56:18.089Z,15.95
2019-03-17T05:58:46.969Z,16.85
2019-03-17T06:01:15.834Z,16.12
2019-03-17T06:03:46.848Z,13.15
2019-03-17T06:06:15.806Z,13.00
2019-03-17T06:08:44.714Z,13.20
2019-03-17T06:11:13.923Z,13.28
2019-03-17T06:13:43.722Z,13.53
2019-03-17T06:16:12.642Z,13.60
2019-03-17T06:18:41.425Z,13.83
2019-03-17T06:21:10.305Z,15.08
2019-03-17T06:23:39.113Z,14.33
2019-03-17T06:26:08.205Z,15.72
2019-03-17T06:28:37.235Z,14.10
2019-03-17T06:31:06.023Z,15.00
2019-03-17T06:33:34.982Z,15.45
2019-03-17T06:36:03.834Z,13.30
2019-03-17T06:38:32.674Z,14.03
2019-03-17T06:41:04.244Z,13.50
2019-03-17T06:43:31.961Z,12.80
2019-03-17T06:46:01.926Z,14.80
2019-03-17T06:48:30.717Z,15.03
2019-03-17T06:50:59.535Z,16.30
2019-03-17T06:53:28.312Z,17.15
2019-03-17T06:55:57.074Z,17.90
2019-03-17T06:58:25.871Z,18.73
2019-03-17T07:00:54.646Z,18.57
2019-03-17T07:03:23.494Z,17.73
2019-03-17T07:05:52.311Z,17.57
2019-03-17T07:08:21.107Z,18.00
2019-03-17T07:10:50.000Z,16.05
2019-03-17T07:13:18.774Z,15.20
2019-03-17T07:15:47.629Z,15.65
2019-03-17T07:18:16.861Z,17.20
2019-03-17T07:20:45.621Z,16.37
2019-03-17T07:23:14.418Z,15.35
2019-03-17T07:25:43.198Z,13.95
2019-03-17T07:28:12.084Z,16.82
2019-03-17T07:30:40.877Z,16.40
2019-03-17T07:33:10.082Z,17.42
2019-03-17T07:35:38.939Z,14.70
2019-03-17T07:38:07.736Z,18.10
2019-03-17T07:40:36.716Z,12.53
2019-03-17T07:43:05.622Z,12.80
2019-03-17T07:45:34.471Z,10.55
2019-03-17T07:48:03.640Z,11.20
2019-03-17T07:50:32.574Z,10.03
2019-03-17T07:53:01.380Z,11.05
2019-03-17T07:55:30.179Z,9.43
2019-03-17T07:57:59.007Z,10.15
2019-03-17T08:00:32.238Z,9.40
2019-03-17T08:02:58.294Z,9.23
2019-03-17T08:05:27.082Z,8.50
2019-03-17T08:08:08.218Z,8.48
2019-03-17T08:10:26.364Z,8.08
2019-03-17T08:12:55.199Z,7.00
2019-03-17T08:15:23.975Z,6.35
2019-03-17T08:17:53.074Z,5.47
2019-03-17T08:20:22.063Z,5.30
2019-03-17T08:22:50.843Z,5.60
2019-03-17T08:25:20.006Z,5.20
2019-03-17T08:27:48.787Z,5.97
2019-03-17T08:30:18.841Z,6.10
2019-03-17T08:32:47.690Z,6.87
2019-03-17T08:35:16.558Z,5.10
2019-03-17T08:37:45.454Z,4.45
2019-03-17T08:40:14.455Z,4.75
2019-03-17T08:42:43.406Z,4.35
2019-03-17T08:45:12.242Z,4.22
2019-03-17T08:47:41.308Z,3.53
2019-03-17T08:50:10.386Z,3.08
2019-03-17T08:52:39.244Z,3.10
2019-03-17T08:55:08.267Z,2.90
2019-03-17T08:57:37.498Z,3.02
2019-03-17T09:00:08.171Z,3.05
2019-03-17T09:02:37.064Z,2.77
2019-03-17T09:05:06.158Z,2.70
2019-03-17T09:07:35.043Z,2.67
2019-03-17T09:10:04.325Z,3.15
2019-03-17T09:12:33.184Z,3.08
2019-03-17T09:15:02.111Z,2.80
2019-03-17T09:17:30.984Z,3.00
2019-03-17T09:19:59.786Z,2.80
2019-03-17T09:22:28.547Z,2.67
2019-03-17T09:24:57.334Z,2.70
2019-03-17T09:27:26.120Z,2.70
2019-03-17T09:29:54.970Z,2.58
2019-03-17T09:32:23.824Z,2.60
2019-03-17T09:34:52.700Z,2.65
2019-03-17T09:37:21.462Z,2.70
2019-03-17T09:39:50.340Z,2.52
2019-03-17T09:42:19.144Z,2.50
2019-03-17T09:44:48.006Z,2.42
2019-03-17T09:47:16.766Z,2.47
2019-03-17T09:49:45.526Z,2.80
2019-03-17T09:52:14.386Z,2.40
2019-03-17T09:54:43.162Z,2.58
2019-03-17T09:57:12.019Z,2.47
2019-03-17T09:59:41.575Z,2.67
2019-03-17T10:02:10.338Z,2.65
2019-03-17T10:04:39.114Z,2.77
2019-03-17T10:07:08.723Z,2.77
2019-03-17T10:09:37.902Z,2.60
2019-03-17T10:12:06.922Z,3.00
2019-03-17T10:14:35.829Z,2.80
2019-03-17T10:17:04.625Z,2.65
2019-03-17T10:19:33.762Z,2.70
2019-03-17T10:22:02.951Z,2.20
2019-03-17T10:24:32.724Z,2.20
2019-03-17T10:27:03.070Z,2.27
2019-03-17T10:29:31.868Z,2.00
2019-03-17T10:32:00.640Z,1.65
2019-03-17T10:34:30.078Z,1.67
2019-03-17T10:36:59.162Z,1.70
2019-03-17T10:39:27.910Z,1.70
2019-03-17T10:41:56.762Z,1.50
2019-03-17T10:44:25.531Z,1.82
2019-03-17T10:46:54.411Z,1.60
2019-03-17T10:49:24.631Z,1.47
2019-03-17T10:51:53.553Z,1.77
2019-03-17T10:54:22.713Z,1.72
2019-03-17T10:56:51.489Z,1.57
2019-03-17T10:59:20.554Z,1.60
2019-03-17T11:01:49.400Z,1.50
2019-03-17T11:04:18.159Z,1.57
2019-03-17T11:06:46.959Z,1.60
2019-03-17T11:09:25.296Z,1.70
2019-03-17T11:11:47.372Z,1.60
2019-03-17T11:14:16.261Z,1.60
2019-03-17T11:16:45.009Z,1.60
2019-03-17T11:19:14.169Z,1.60
2019-03-17T11:21:43.276Z,1.50
2019-03-17T11:24:12.056Z,1.60
2019-03-17T11:26:41.147Z,1.70
2019-03-17T11:29:09.910Z,1.50
2019-03-17T11:31:38.670Z,1.50
2019-03-17T11:34:07.524Z,1.65
2019-03-17T11:36:36.361Z,1.70
2019-03-17T11:39:07.070Z,1.70
2019-03-17T11:41:36.012Z,2.10
2019-03-17T11:44:04.842Z,2.00
2019-03-17T11:46:33.727Z,1.90
2019-03-17T11:49:02.582Z,1.80
2019-03-17T11:51:31.448Z,1.92
2019-03-17T11:54:00.286Z,1.92
2019-03-17T11:56:29.131Z,1.80
2019-03-17T11:58:57.974Z,1.90
2019-03-17T12:01:27.200Z,2.02
2019-03-17T12:03:56.411Z,1.82
2019-03-17T12:06:25.174Z,1.80
2019-03-17T12:08:53.936Z,1.80
2019-03-17T12:11:22.722Z,1.77
2019-03-17T12:13:51.496Z,1.92
2019-03-17T12:16:20.316Z,1.70
2019-03-17T12:18:49.162Z,1.60
2019-03-17T12:21:17.931Z,1.70
2019-03-17T12:23:46.815Z,1.67
2019-03-17T12:26:15.566Z,1.90
2019-03-17T12:28:44.434Z,1.80
2019-03-17T12:31:13.263Z,1.80
2019-03-17T12:33:42.030Z,1.80
2019-03-17T12:36:10.802Z,1.90
2019-03-17T12:38:39.726Z,1.80
2019-03-17T12:41:08.972Z,1.80
2019-03-17T12:43:37.731Z,2.00
2019-03-17T12:46:06.573Z,1.90
2019-03-17T12:48:35.362Z,2.00
2019-03-17T12:51:04.303Z,1.90
2019-03-17T12:53:33.168Z,1.97
2019-03-17T12:56:01.986Z,1.90
2019-03-17T12:58:30.787Z,2.10
2019-03-17T13:00:59.784Z,2.20
2019-03-17T13:03:28.602Z,2.30
2019-03-17T13:05:57.450Z,2.10
2019-03-17T13:08:26.963Z,2.12
2019-03-17T13:10:56.038Z,1.95
2019-03-17T13:13:24.972Z,2.20
2019-03-17T13:15:53.846Z,2.20
2019-03-17T13:18:22.680Z,2.17
2019-03-17T13:20:52.556Z,1.90
2019-03-17T13:23:21.439Z,2.10
2019-03-17T13:25:50.348Z,2.12
2019-03-17T13:28:19.150Z,2.10
2019-03-17T13:30:47.967Z,2.15
2019-03-17T13:33:16.774Z,2.37
2019-03-17T13:35:45.575Z,2.00
2019-03-17T13:38:14.411Z,2.10
2019-03-17T13:40:43.240Z,2.37
2019-03-17T13:43:12.126Z,2.15
2019-03-17T13:45:40.900Z,2.10
2019-03-17T13:48:09.798Z,2.10
2019-03-17T13:50:38.603Z,1.87
2019-03-17T13:53:07.415Z,2.10
2019-03-17T13:55:36.543Z,2.27
2019-03-17T13:58:05.565Z,2.33
2019-03-17T14:00:34.527Z,2.30
2019-03-17T14:03:03.463Z,2.33
2019-03-17T14:05:32.337Z,2.67
2019-03-17T14:08:01.260Z,2.33
2019-03-17T14:10:40.457Z,1.90
2019-03-17T14:13:01.996Z,2.23
2019-03-17T14:15:30.879Z,2.17
2019-03-17T14:17:59.714Z,2.35
2019-03-17T14:20:28.600Z,2.00
2019-03-17T14:22:57.469Z,2.00
2019-03-17T14:25:26.683Z,2.12
2019-03-17T14:27:55.638Z,2.10
2019-03-17T14:30:24.438Z,2.20
2019-03-17T14:32:53.359Z,2.10
2019-03-17T14:35:22.340Z,2.00
2019-03-17T14:37:51.639Z,2.00
2019-03-17T14:40:20.552Z,2.30
2019-03-17T14:42:49.511Z,2.30
2019-03-17T14:45:18.462Z,2.20
2019-03-17T14:47:47.375Z,2.40
2019-03-17T14:50:17.307Z,2.20
2019-03-17T14:52:46.345Z,2.25
2019-03-17T14:55:15.346Z,2.30
2019-03-17T14:57:44.257Z,2.27
2019-03-17T15:00:17.202Z,2.20
2019-03-17T15:02:46.195Z,2.35
2019-03-17T15:05:15.351Z,2.40
2019-03-17T15:07:44.503Z,2.40
2019-03-17T15:10:15.035Z,2.60
2019-03-17T15:12:43.890Z,2.40
2019-03-17T15:15:13.867Z,2.30
2019-03-17T15:17:42.799Z,2.50
2019-03-17T15:20:13.634Z,2.40
2019-03-17T15:22:42.494Z,2.42
2019-03-17T15:25:11.467Z,2.25
2019-03-17T15:27:41.854Z,2.53
2019-03-17T15:30:16.150Z,2.27
2019-03-17T15:32:44.950Z,2.45
2019-03-17T15:35:13.891Z,2.30
2019-03-17T15:37:42.673Z,2.50
2019-03-17T15:40:12.051Z,2.70
2019-03-17T15:42:40.884Z,2.80
2019-03-17T15:45:11.954Z,2.80
2019-03-17T15:47:40.870Z,2.90
2019-03-17T15:50:11.987Z,2.80
2019-03-17T15:52:40.962Z,3.00
2019-03-17T15:55:10.642Z,3.05
2019-03-17T15:57:39.522Z,3.10
2019-03-17T16:00:23.719Z,3.30
2019-03-17T16:02:42.870Z,3.30
2019-03-17T16:05:11.782Z,3.05
2019-03-17T16:07:42.477Z,3.25
2019-03-17T16:10:12.857Z,2.80
2019-03-17T16:12:41.698Z,2.10
2019-03-17T16:15:11.850Z,1.20
2019-03-17T16:17:40.715Z,0.85
2019-03-17T16:20:11.521Z,1.00
2019-03-17T16:22:40.378Z,0.70
2019-03-17T16:25:09.755Z,0.82
2019-03-17T16:27:38.587Z,0.60
2019-03-17T16:30:10.690Z,0.50
2019-03-17T16:32:39.524Z,0.47
2019-03-17T16:35:08.554Z,0.40
2019-03-17T16:37:37.683Z,0.70
2019-03-17T16:40:07.875Z,0.40
2019-03-17T16:42:36.642Z,0.50
2019-03-17T16:45:06.650Z,0.40
2019-03-17T16:47:35.490Z,0.40
2019-03-17T16:50:05.219Z,0.55
2019-03-17T16:52:34.047Z,0.40
2019-03-17T16:55:02.905Z,0.42
2019-03-17T16:57:31.792Z,0.55
2019-03-17T17:00:00.585Z,0.50
2019-03-17T17:02:29.643Z,0.88
2019-03-17T17:04:58.640Z,0.70
2019-03-17T17:07:27.418Z,0.50
2019-03-17T17:09:56.262Z,0.60
2019-03-17T17:12:25.067Z,0.70
2019-03-17T17:14:53.882Z,0.68
2019-03-17T17:17:22.667Z,0.60
2019-03-17T17:19:51.451Z,0.70
2019-03-17T17:22:20.291Z,0.60
2019-03-17T17:24:49.518Z,0.60
2019-03-17T17:27:20.591Z,0.82
2019-03-17T17:29:49.233Z,0.70
2019-03-17T17:32:18.043Z,0.70
2019-03-17T17:34:46.902Z,1.05
2019-03-17T17:37:15.741Z,0.90
2019-03-17T17:39:44.595Z,0.88
2019-03-17T17:42:13.378Z,0.90
2019-03-17T17:44:42.251Z,0.90
2019-03-17T17:47:11.046Z,0.80
2019-03-17T17:49:39.914Z,0.98
2019-03-17T17:52:08.666Z,0.95
2019-03-17T17:54:37.803Z,0.75
2019-03-17T17:57:06.803Z,0.78
2019-03-17T17:59:35.683Z,0.85
2019-03-17T18:02:04.603Z,0.90
2019-03-17T18:04:33.379Z,0.80
2019-03-17T18:07:02.256Z,0.98
2019-03-17T18:09:31.022Z,0.80
2019-03-17T18:11:59.842Z,1.00
2019-03-17T18:14:28.961Z,1.00
2019-03-17T18:16:57.738Z,0.93
2019-03-17T18:19:26.529Z,0.90
2019-03-17T18:21:55.334Z,0.98
2019-03-17T18:24:24.159Z,1.05
2019-03-17T18:26:53.006Z,1.30
2019-03-17T18:29:21.776Z,0.95
2019-03-17T18:31:50.556Z,1.00
2019-03-17T18:34:19.757Z,1.05
2019-03-17T18:36:48.817Z,0.90
2019-03-17T18:39:17.651Z,1.00
2019-03-17T18:41:46.486Z,1.20
2019-03-17T18:44:15.314Z,1.20
2019-03-17T18:46:44.200Z,1.22
2019-03-17T18:49:13.115Z,1.33
2019-03-17T18:51:41.907Z,1.30
2019-03-17T18:54:10.803Z,1.22
2019-03-17T18:56:39.816Z,1.20
2019-03-17T18:59:08.695Z,1.20
2019-03-17T19:01:37.551Z,1.12
2019-03-17T19:04:06.353Z,1.30
2019-03-17T19:06:36.006Z,1.20
2019-03-17T19:09:06.927Z,1.40
2019-03-17T19:11:36.113Z,1.30
2019-03-17T19:14:05.066Z,1.30
2019-03-17T19:16:33.903Z,1.37
2019-03-17T19:19:02.786Z,1.67
2019-03-17T19:21:31.682Z,1.60
2019-03-17T19:24:00.768Z,1.70
2019-03-17T19:26:29.760Z,1.60
2019-03-17T19:28:58.558Z,1.70
2019-03-17T19:31:27.724Z,1.70
2019-03-17T19:33:56.623Z,1.72
2019-03-17T19:36:25.948Z,1.70
2019-03-17T19:38:54.760Z,1.70
2019-03-17T19:41:24.863Z,1.70
2019-03-17T19:43:53.675Z,1.92
2019-03-17T19:46:22.620Z,2.02
2019-03-17T19:48:51.543Z,1.85
2019-03-17T19:51:20.488Z,1.90
2019-03-17T19:53:49.287Z,1.72
2019-03-17T19:56:18.123Z,1.52
2019-03-17T19:58:46.971Z,1.60
2019-03-17T20:01:16.147Z,1.65
2019-03-17T20:03:45.048Z,1.40
2019-03-17T20:06:14.006Z,1.62
2019-03-17T20:08:42.921Z,1.60
2019-03-17T20:11:11.856Z,1.55
2019-03-17T20:13:40.703Z,1.60
2019-03-17T20:16:09.578Z,1.70
2019-03-17T20:18:41.258Z,1.95
2019-03-17T20:21:08.960Z,1.80
2019-03-17T20:23:37.782Z,1.70
2019-03-17T20:26:06.587Z,1.70
2019-03-17T20:28:35.441Z,1.80
2019-03-17T20:31:04.228Z,1.60
2019-03-17T20:33:33.031Z,1.60
2019-03-17T20:36:01.839Z,1.40
2019-03-17T20:38:30.725Z,1.70
2019-03-17T20:40:59.542Z,1.62
2019-03-17T20:43:34.998Z,1.60
2019-03-17T20:45:59.209Z,1.40
2019-03-17T20:48:28.034Z,1.65
2019-03-17T20:50:59.192Z,1.57
2019-03-17T20:53:28.432Z,1.50
2019-03-17T20:55:57.202Z,1.60
2019-03-17T20:58:26.318Z,1.70
2019-03-17T21:00:55.222Z,1.60
2019-03-17T21:03:24.164Z,1.70
2019-03-17T21:05:53.098Z,1.60
2019-03-17T21:08:22.281Z,1.60
2019-03-17T21:10:51.213Z,1.60
2019-03-17T21:13:19.983Z,1.70
2019-03-17T21:15:48.917Z,1.82
2019-03-17T21:18:17.829Z,1.50
2019-03-17T21:20:46.755Z,1.72
2019-03-17T21:23:15.579Z,1.70
2019-03-17T21:25:44.433Z,1.67
2019-03-17T21:28:13.506Z,1.75
2019-03-17T21:30:42.305Z,1.60
2019-03-17T21:33:11.334Z,1.80
2019-03-17T21:35:40.267Z,1.55
2019-03-17T21:38:09.362Z,1.60
2019-03-17T21:40:38.152Z,1.67
2019-03-17T21:43:07.133Z,1.75
2019-03-17T21:45:36.083Z,1.70
2019-03-17T21:48:05.056Z,1.67
2019-03-17T21:50:33.858Z,1.80
2019-03-17T21:53:03.112Z,1.70
2019-03-17T21:55:31.971Z,1.55
2019-03-17T21:58:07.655Z,1.92
2019-03-17T22:00:31.373Z,1.72
2019-03-17T22:03:00.160Z,2.02
2019-03-17T22:05:29.314Z,1.80
2019-03-17T22:07:58.146Z,1.90
2019-03-17T22:10:27.025Z,1.90
2019-03-17T22:12:56.392Z,2.02
2019-03-17T22:15:25.627Z,1.75
2019-03-17T22:17:54.459Z,1.90
2019-03-17T22:20:23.319Z,1.90
2019-03-17T22:22:52.433Z,1.70
2019-03-17T22:25:22.236Z,1.90
2019-03-17T22:27:51.118Z,1.85
2019-03-17T22:30:20.039Z,2.10
2019-03-17T22:32:48.933Z,1.80
2019-03-17T22:35:18.144Z,1.80
2019-03-17T22:37:47.147Z,1.70
2019-03-17T22:40:16.047Z,1.80
2019-03-17T22:42:46.206Z,1.80
2019-03-17T22:45:15.131Z,1.90
2019-03-17T22:47:44.126Z,1.75
2019-03-17T22:50:13.169Z,2.05
2019-03-17T22:52:42.090Z,1.80
2019-03-17T22:55:11.839Z,1.90
2019-03-17T22:57:41.034Z,1.75
2019-03-17T23:00:13.083Z,2.00
2019-03-17T23:02:42.050Z,1.77
2019-03-17T23:05:10.971Z,1.82
2019-03-17T23:07:39.743Z,1.80
2019-03-17T23:10:09.610Z,1.77
2019-03-17T23:12:38.406Z,2.00
2019-03-17T23:15:07.462Z,1.90
2019-03-17T23:17:36.375Z,1.85
2019-03-17T23:20:05.602Z,1.80
2019-03-17T23:22:34.894Z,2.00
2019-03-17T23:25:03.973Z,1.80
2019-03-17T23:27:32.777Z,1.90
2019-03-17T23:30:01.675Z,2.03
2019-03-17T23:32:30.485Z,1.90
2019-03-17T23:34:59.569Z,1.82
2019-03-17T23:37:28.335Z,1.80
2019-03-17T23:39:57.145Z,1.85
2019-03-17T23:42:26.195Z,2.00
2019-03-17T23:44:54.963Z,2.00
2019-03-17T23:47:23.768Z,1.77
2019-03-17T23:49:52.552Z,1.90
2019-03-17T23:52:21.342Z,2.00
2019-03-17T23:54:50.497Z,1.90
2019-03-17T23:57:19.274Z,2.10
2019-03-17T23:59:48.104Z,2.00
